Tilton, South Dakota
Current Conditions -  °F | °C
As of 9:35 AM on Thursday 30 Oct 2014 (Local Time) from KSPF Reporting Station
Clear Clear  
Wind Chill: 44°   Ceiling: Unl
Heat Index: 48°   Visibility: 10mi
Dew Point: 32°   Wind: 10mph
Humidity: 54%   Direction: 310°NW
Pressure: 30.32"   Gusts: NA
Location:  44.253°N, 103.912°W
Report Text: KSPF 301535Z AUTO 31009KT 10SM CLR 09/00 A3032 RMK AO2
Loading
Personal Weather Stations






























Interactive Weather Map New forecast layout! Learn more

10-Day Weather Forecast

Advertisements
Track Severe Weather on mobile